Time;durP1;ratioP1;P1;durP2;ratioP2;P2;SDS_P1;SDS_P2;PMS_P1;PMS_P2;Temp;Humidity;BMP_temperature;BMP_pressure;BME280_temperature;BME280_humidity;BME280_pressure;Samples;Min_cycle;Max_cycle;Signal;HPM_P1;HPM_P2
2023/11/17 00:01:39;;;;;;;;;31.75;25.50;;;;;-143.90;100.00;75263.19;4966736;28;102299;-83
2023/11/17 00:04:06;;;;;;;;;36.75;29.25;;;;;-143.90;100.00;75263.19;4968165;27;104154;-82
2023/11/17 00:06:33;;;;;;;;;37.00;31.50;;;;;-143.90;100.00;75263.19;4964848;28;102087;-83
2023/11/17 00:09:01;;;;;;;;;43.00;36.25;;;;;-143.90;100.00;75259.06;4964661;28;103219;-83
2023/11/17 00:11:27;;;;;;;;;34.00;30.50;;;;;-143.90;100.00;75259.06;4965353;28;102155;-83
2023/11/17 00:13:54;;;;;;;;;34.50;28.25;;;;;-143.90;100.00;75252.84;4968395;28;102644;-85
2023/11/17 00:16:21;;;;;;;;;35.50;30.75;;;;;-143.90;100.00;75248.72;4967202;28;102223;-85
2023/11/17 00:18:48;;;;;;;;;35.50;28.25;;;;;-143.90;100.00;75250.78;4968221;28;102117;-83
2023/11/17 00:21:18;;;;;;;;;40.50;33.00;;;;;-143.90;100.00;75248.72;4966285;28;102360;-85
2023/11/17 00:23:45;;;;;;;;;27.75;23.00;;;;;-143.90;100.00;75250.78;4971400;28;108800;-84
2023/11/17 00:26:12;;;;;;;;;36.25;29.25;;;;;-143.90;100.00;75254.91;4969087;28;102256;-84
2023/11/17 00:28:39;;;;;;;;;42.50;34.50;;;;;-143.90;100.00;75250.78;4956448;28;102321;-85
2023/11/17 00:31:07;;;;;;;;;35.00;32.25;;;;;-143.90;100.00;75246.66;4973861;27;102228;-84
2023/11/17 00:33:33;;;;;;;;;41.75;30.75;;;;;-143.90;100.00;75242.50;4967225;27;103968;-85
2023/11/17 00:36:00;;;;;;;;;37.75;27.50;;;;;-143.90;100.00;75246.66;4961221;28;102614;-83
2023/11/17 00:38:31;;;;;;;;;36.00;31.75;;;;;-143.90;100.00;75232.19;4960240;28;102516;-83
2023/11/17 00:40:59;;;;;;;;;44.25;33.25;;;;;-143.90;100.00;75238.38;4967352;28;102224;-83
2023/11/17 00:43:27;;;;;;;;;38.75;33.25;;;;;-143.90;100.00;75246.66;4967207;28;103158;-83
2023/11/17 00:46:00;;;;;;;;;47.75;35.00;;;;;-143.90;100.00;75238.38;4965653;28;102973;-85
2023/11/17 00:48:28;;;;;;;;;34.00;31.50;;;;;-143.90;100.00;75230.09;4963931;28;102254;-87
2023/11/17 00:50:56;;;;;;;;;31.50;28.00;;;;;-143.90;100.00;75221.84;4955791;28;102467;-84
2023/11/17 00:53:26;;;;;;;;;31.50;26.50;;;;;-143.90;100.00;75217.69;4965846;28;104045;-85
2023/11/17 00:55:53;;;;;;;;;37.00;29.75;;;;;-143.90;100.00;75211.50;4964337;28;102029;-86
2023/11/17 00:58:20;;;;;;;;;25.50;20.25;;;;;-143.90;100.00;75203.22;4968776;28;102147;-84
2023/11/17 01:00:46;;;;;;;;;27.50;23.25;;;;;-143.90;100.00;75209.44;4964528;28;103537;-85
2023/11/17 01:03:16;;;;;;;;;31.00;26.25;;;;;-143.90;100.00;75205.28;4970331;28;104251;-85
2023/11/17 01:05:42;;;;;;;;;34.00;28.00;;;;;-143.90;100.00;75203.22;4956917;28;102044;-86
2023/11/17 01:08:10;;;;;;;;;33.50;29.25;;;;;-143.90;100.00;75194.97;4958671;28;102607;-87
2023/11/17 01:10:37;;;;;;;;;26.00;23.00;;;;;-143.90;100.00;75186.69;4962994;28;102574;-85
2023/11/17 01:13:05;;;;;;;;;29.75;27.75;;;;;-143.90;100.00;75190.81;4954415;28;104026;-85
2023/11/17 01:15:36;;;;;;;;;38.00;31.75;;;;;-143.90;100.00;75192.91;4961631;28;102233;-84
2023/11/17 01:18:05;;;;;;;;;44.00;36.00;;;;;-143.90;100.00;75201.16;4960958;28;102399;-86
2023/11/17 01:20:33;;;;;;;;;40.75;32.50;;;;;-143.90;100.00;75201.16;4963765;28;102068;-86
2023/11/17 01:23:03;;;;;;;;;33.00;28.75;;;;;-143.90;100.00;75188.75;4963321;28;104067;-85
2023/11/17 01:25:34;;;;;;;;;25.25;21.75;;;;;-143.90;100.00;75184.63;4966644;28;102613;-85
2023/11/17 01:28:03;;;;;;;;;33.75;27.75;;;;;-143.90;100.00;75184.63;4963333;28;102449;-85
2023/11/17 01:30:31;;;;;;;;;29.75;23.50;;;;;-143.90;100.00;75176.34;4966102;28;102419;-85
2023/11/17 01:32:57;;;;;;;;;22.50;20.50;;;;;-143.90;100.00;75174.28;4954297;27;104057;-85
2023/11/17 01:35:25;;;;;;;;;27.00;24.00;;;;;-143.90;100.00;75176.34;4965685;27;102502;-85
2023/11/17 01:37:51;;;;;;;;;17.75;12.75;;;;;-143.90;100.00;75172.22;4962039;27;103467;-82
2023/11/17 01:40:19;;;;;;;;;32.75;27.75;;;;;-143.90;100.00;75172.22;4967393;27;102059;-84
2023/11/17 01:42:46;;;;;;;;;25.75;22.00;;;;;-143.90;100.00;75168.09;4958316;28;109344;-85
2023/11/17 01:45:14;;;;;;;;;21.00;19.00;;;;;-143.90;100.00;75159.81;4960758;28;102429;-85
2023/11/17 01:47:42;;;;;;;;;20.00;15.50;;;;;-143.90;100.00;75168.09;4951108;28;102401;-85
2023/11/17 01:50:12;;;;;;;;;29.50;26.00;;;;;-143.90;100.00;75176.34;4965240;28;102489;-86
2023/11/17 01:52:40;;;;;;;;;33.50;28.75;;;;;-143.90;100.00;75176.34;4954758;27;104346;-85
2023/11/17 01:55:08;;;;;;;;;25.50;24.25;;;;;-143.90;100.00;75166.03;4961619;28;103349;-86
2023/11/17 01:57:37;;;;;;;;;42.25;37.00;;;;;-143.90;100.00;75155.69;4959620;28;102265;-87
2023/11/17 02:00:08;;;;;;;;;25.75;24.00;;;;;-143.90;100.00;75161.88;4961011;28;102402;-87
2023/11/17 02:02:35;;;;;;;;;31.25;28.50;;;;;-143.90;100.00;75161.88;4951311;27;104168;-86
2023/11/17 02:05:02;;;;;;;;;28.25;26.50;;;;;-143.90;100.00;75153.63;4962600;28;102646;-87
2023/11/17 02:07:36;;;;;;;;;30.50;22.25;;;;;-143.90;100.00;75157.75;4954234;27;102617;-86
2023/11/17 02:10:15;;;;;;;;;30.50;27.00;;;;;-143.90;100.00;75159.81;4963986;27;102322;-86
2023/11/17 02:12:52;;;;;;;;;32.25;27.50;;;;;-143.90;100.00;75161.88;4962194;27;104589;-87
2023/11/17 02:15:25;;;;;;;;;39.00;33.50;;;;;-143.90;100.00;75159.81;4965718;28;102322;-87
2023/11/17 02:17:56;;;;;;;;;31.25;24.75;;;;;-143.90;100.00;75159.81;4966404;27;102123;-80
2023/11/17 02:20:25;;;;;;;;;37.50;32.25;;;;;-143.90;100.00;75159.81;4961180;27;104672;-87
2023/11/17 02:22:59;;;;;;;;;32.50;27.25;;;;;-143.90;100.00;75151.53;4958845;28;108998;-80
2023/11/17 02:25:34;;;;;;;;;33.50;26.50;;;;;-143.90;100.00;75163.94;4947078;28;102189;-85
2023/11/17 02:28:34;;;;;;;;;26.25;23.00;;;;;-143.90;100.00;75155.69;4960666;28;102553;-85
2023/11/17 02:31:15;;;;;;;;;33.75;28.25;;;;;-143.90;100.00;75151.53;4949439;27;103126;-85
2023/11/17 02:33:48;;;;;;;;;35.00;30.25;;;;;-143.90;100.00;75155.69;4958060;28;104045;-86
2023/11/17 02:36:19;;;;;;;;;35.25;30.25;;;;;-143.90;100.00;75155.69;4960172;27;102496;-87
2023/11/17 02:38:57;;;;;;;;;38.50;30.00;;;;;-143.90;100.00;75153.63;4962471;28;102767;-86
2023/11/17 02:41:32;;;;;;;;;28.50;26.50;;;;;-143.90;100.00;75149.47;4961072;27;102063;-86
2023/11/17 02:44:02;;;;;;;;;28.00;23.50;;;;;-143.90;100.00;75145.34;4957991;28;104241;-86
2023/11/17 02:46:32;;;;;;;;;36.00;26.00;;;;;-143.90;100.00;75137.06;4963826;27;102263;-84
2023/11/17 02:49:01;;;;;;;;;22.00;20.75;;;;;-143.90;100.00;75137.06;4963226;27;102390;-85
2023/11/17 02:51:37;;;;;;;;;25.25;20.75;;;;;-143.90;100.00;75139.16;4967193;27;102000;-86
2023/11/17 02:54:08;;;;;;;;;24.75;23.25;;;;;-143.90;100.00;75139.16;4965695;28;104123;-85
2023/11/17 02:56:40;;;;;;;;;33.75;29.25;;;;;-143.90;100.00;75139.16;4963325;28;102167;-87
2023/11/17 02:59:10;;;;;;;;;34.00;23.75;;;;;-143.90;100.00;75143.28;4958276;28;102481;-87
2023/11/17 03:01:41;;;;;;;;;29.00;27.00;;;;;-143.90;100.00;75132.94;4959649;28;102039;-87
2023/11/17 03:04:13;;;;;;;;;27.75;24.75;;;;;-143.90;100.00;75139.16;4957334;28;103797;-86
2023/11/17 03:06:48;;;;;;;;;26.75;23.00;;;;;-143.90;100.00;75137.06;4961544;28;102081;-85
2023/11/17 03:09:22;;;;;;;;;31.00;27.25;;;;;-143.90;100.00;75132.94;4960733;28;102217;-86
2023/11/17 03:11:52;;;;;;;;;29.25;25.00;;;;;-143.90;100.00;75141.22;4958874;28;102593;-86
2023/11/17 03:14:23;;;;;;;;;23.25;21.25;;;;;-143.90;100.00;75139.16;4962414;28;108523;-87
2023/11/17 03:16:58;;;;;;;;;20.00;17.75;;;;;-143.90;100.00;75139.16;4965926;28;102034;-86
2023/11/17 03:19:28;;;;;;;;;18.75;16.25;;;;;-143.90;100.00;75137.06;4964040;28;101930;-86
2023/11/17 03:21:55;;;;;;;;;18.00;14.25;;;;;-143.90;100.00;75130.88;4965442;28;102031;-85
2023/11/17 03:24:23;;;;;;;;;17.75;12.50;;;;;-143.90;100.00;75132.94;4982388;28;104194;-86
2023/11/17 03:26:55;;;;;;;;;9.75;9.75;;;;;-143.90;100.00;75132.94;4959313;28;103185;-87
2023/11/17 03:29:23;;;;;;;;;17.00;12.25;;;;;-143.90;100.00;75132.94;4978562;28;102453;-76
2023/11/17 03:31:52;;;;;;;;;17.25;13.75;;;;;-143.90;100.00;75137.06;4971897;28;102450;-84
2023/11/17 03:34:23;;;;;;;;;21.00;16.00;;;;;-143.90;100.00;75141.22;4964547;28;108548;-86
2023/11/17 03:36:56;;;;;;;;;22.75;20.25;;;;;-143.90;100.00;75147.41;4941024;28;102252;-85
2023/11/17 03:39:24;;;;;;;;;21.25;19.25;;;;;-143.90;100.00;75143.28;4953992;28;103006;-85
2023/11/17 03:41:52;;;;;;;;;14.00;9.25;;;;;-143.90;100.00;75145.34;4966659;27;102561;-85
2023/11/17 03:44:24;;;;;;;;;10.75;8.00;;;;;-143.90;100.00;75137.06;4960893;28;108679;-85
2023/11/17 03:46:57;;;;;;;;;18.50;17.25;;;;;-143.90;100.00;75143.28;4958941;28;102482;-85
2023/11/17 03:49:25;;;;;;;;;22.50;16.50;;;;;-143.90;100.00;75145.34;4961085;28;103184;-84
2023/11/17 03:51:55;;;;;;;;;15.25;13.50;;;;;-143.90;100.00;75137.06;4964673;28;107172;-76
2023/11/17 03:54:22;;;;;;;;;13.50;12.75;;;;;-143.90;100.00;75130.88;4963267;28;108805;-79
2023/11/17 03:56:50;;;;;;;;;9.00;9.00;;;;;-143.90;100.00;75130.88;4964919;28;102254;-85
2023/11/17 03:59:18;;;;;;;;;13.00;9.50;;;;;-143.90;100.00;75124.66;4962316;27;104386;-85
2023/11/17 04:01:46;;;;;;;;;10.25;8.25;;;;;-143.90;100.00;75120.53;4965860;28;102487;-84
2023/11/17 04:04:17;;;;;;;;;8.50;7.50;;;;;-143.90;100.00;75122.59;4967146;28;103825;-83
2023/11/17 04:06:49;;;;;;;;;12.00;10.00;;;;;-143.90;100.00;75124.66;4959867;28;104067;-83
2023/11/17 04:09:20;;;;;;;;;10.00;8.00;;;;;-143.90;100.00;75114.34;4967846;28;102111;-83
2023/11/17 04:11:50;;;;;;;;;9.50;7.75;;;;;-143.90;100.00;75106.06;4966358;28;102754;-84
2023/11/17 04:14:21;;;;;;;;;10.00;8.50;;;;;-143.90;100.00;75110.19;4953594;28;106205;-84
2023/11/17 04:16:49;;;;;;;;;12.50;12.25;;;;;-143.90;100.00;75110.19;4956900;28;102189;-85
2023/11/17 04:19:19;;;;;;;;;8.75;7.75;;;;;-143.90;100.00;75108.13;4981276;27;102257;-83
2023/11/17 04:21:48;;;;;;;;;14.25;12.75;;;;;-143.90;100.00;75116.41;4961325;28;102640;-85
2023/11/17 04:24:16;;;;;;;;;13.00;8.75;;;;;-143.90;100.00;75110.19;4962890;28;104180;-84
2023/11/17 04:26:44;;;;;;;;;17.50;12.00;;;;;-143.90;100.00;75118.47;4963565;28;102064;-85
2023/11/17 04:29:11;;;;;;;;;12.75;11.75;;;;;-143.90;100.00;75118.47;4955424;28;102379;-84
2023/11/17 04:31:38;;;;;;;;;9.50;6.00;;;;;-143.90;100.00;75110.19;4963279;28;102422;-84
2023/11/17 04:34:05;;;;;;;;;15.00;14.00;;;;;-143.90;100.00;75118.47;4968893;27;104097;-85
2023/11/17 04:36:33;;;;;;;;;15.00;10.50;;;;;-143.90;100.00;75116.41;4966482;28;102679;-85
2023/11/17 04:39:00;;;;;;;;;17.50;14.50;;;;;-143.90;100.00;75120.53;4964670;28;102454;-85
2023/11/17 04:41:28;;;;;;;;;17.00;15.00;;;;;-143.90;100.00;75130.88;4970851;28;102100;-83
2023/11/17 04:43:54;;;;;;;;;16.75;15.75;;;;;-143.90;100.00;75122.59;4969814;27;104085;-84
2023/11/17 04:46:21;;;;;;;;;16.75;12.75;;;;;-143.90;100.00;75124.66;4966320;28;102027;-84
2023/11/17 04:48:49;;;;;;;;;15.25;12.00;;;;;-143.90;100.00;75124.66;4967122;28;102387;-84
2023/11/17 04:51:16;;;;;;;;;14.75;13.75;;;;;-143.90;100.00;75130.88;4961576;28;102501;-84
2023/11/17 04:53:43;;;;;;;;;21.50;20.25;;;;;-143.90;100.00;75128.81;4960042;28;104012;-85
2023/11/17 04:56:11;;;;;;;;;21.75;17.50;;;;;-143.90;100.00;75135.00;4956143;27;102584;-86
2023/11/17 04:58:39;;;;;;;;;18.75;16.75;;;;;-143.90;100.00;75135.00;4958115;28;102462;-85
2023/11/17 05:01:06;;;;;;;;;16.50;15.50;;;;;-143.90;100.00;75126.75;4959789;28;102118;-85
2023/11/17 05:03:33;;;;;;;;;29.00;23.75;;;;;-143.90;100.00;75135.00;4962543;28;103998;-85
2023/11/17 05:06:06;;;;;;;;;18.75;17.75;;;;;-143.90;100.00;75141.22;4968160;28;102431;-83
2023/11/17 05:08:36;;;;;;;;;28.75;24.00;;;;;-143.90;100.00;75139.16;4963953;27;102280;-87
2023/11/17 05:11:04;;;;;;;;;28.50;23.50;;;;;-143.90;100.00;75141.22;4969433;28;102666;-87
2023/11/17 05:13:32;;;;;;;;;25.75;23.00;;;;;-143.90;100.00;75145.34;4962503;28;104002;-87
2023/11/17 05:16:03;;;;;;;;;22.00;18.75;;;;;-143.90;100.00;75143.28;4960804;28;102084;-86
2023/11/17 05:18:30;;;;;;;;;24.25;17.00;;;;;-143.90;100.00;75147.41;4960847;28;102662;-86
2023/11/17 05:20:56;;;;;;;;;25.25;24.00;;;;;-143.90;100.00;75151.53;4963341;28;102643;-87
2023/11/17 05:23:23;;;;;;;;;20.50;18.00;;;;;-143.90;100.00;75147.41;4954243;28;104014;-84
2023/11/17 05:25:49;;;;;;;;;27.00;20.00;;;;;-143.90;100.00;75143.28;4966604;28;102420;-86
2023/11/17 05:28:18;;;;;;;;;13.25;10.25;;;;;-143.90;100.00;75145.34;4962046;28;102254;-86
2023/11/17 05:30:45;;;;;;;;;12.25;11.50;;;;;-143.90;100.00;75145.34;4962493;28;102422;-86
2023/11/17 05:33:14;;;;;;;;;15.25;14.00;;;;;-143.90;100.00;75143.28;4957023;28;103946;-86
2023/11/17 05:35:42;;;;;;;;;10.25;8.75;;;;;-143.90;100.00;75145.34;4961606;28;102397;-88
2023/11/17 05:38:09;;;;;;;;;12.50;12.00;;;;;-143.90;100.00;75143.28;4957093;28;102284;-85
2023/11/17 05:40:37;;;;;;;;;9.50;9.50;;;;;-143.90;100.00;75141.22;4965579;28;103002;-84
2023/11/17 05:43:06;;;;;;;;;11.25;8.00;;;;;-143.90;100.00;75139.16;4965444;27;104035;-82
2023/11/17 05:45:36;;;;;;;;;7.50;6.50;;;;;-143.90;100.00;75145.34;4963879;28;102665;-82
2023/11/17 05:48:05;;;;;;;;;5.25;5.25;;;;;-143.90;100.00;75137.06;4963550;28;102539;-82
2023/11/17 05:50:33;;;;;;;;;8.00;7.50;;;;;-143.90;100.00;75135.00;4965950;28;102644;-82
2023/11/17 05:53:00;;;;;;;;;3.00;3.00;;;;;-143.90;100.00;75141.22;4964768;28;103985;-82
2023/11/17 05:55:27;;;;;;;;;7.00;6.00;;;;;-143.90;100.00;75147.41;4961545;28;102021;-81
2023/11/17 05:57:53;;;;;;;;;7.00;6.25;;;;;-143.90;100.00;75147.41;4970680;28;102267;-81
2023/11/17 06:00:20;;;;;;;;;4.50;3.50;;;;;-143.90;100.00;75147.41;4969208;27;101921;-80
2023/11/17 06:02:47;;;;;;;;;6.00;3.50;;;;;-143.90;100.00;75147.41;4967944;28;105968;-81
2023/11/17 06:05:15;;;;;;;;;6.00;3.50;;;;;-143.90;100.00;75145.34;4965755;28;102308;-81
2023/11/17 06:07:41;;;;;;;;;3.25;2.75;;;;;-143.90;100.00;75147.41;4961411;28;102040;-81
2023/11/17 06:10:08;;;;;;;;;7.75;7.00;;;;;-143.90;100.00;75151.53;4962559;28;102146;-81
2023/11/17 06:12:36;;;;;;;;;12.00;11.75;;;;;-143.90;100.00;75161.88;4960035;28;104170;-80
2023/11/17 06:15:04;;;;;;;;;13.00;11.75;;;;;-143.90;100.00;75155.69;4957676;28;102590;-82
2023/11/17 06:17:31;;;;;;;;;10.00;8.00;;;;;-143.90;100.00;75151.53;4962342;28;102404;-82
2023/11/17 06:20:00;;;;;;;;;7.75;7.50;;;;;-143.90;100.00;75157.75;4963632;28;102414;-81
2023/11/17 06:22:30;;;;;;;;;6.00;6.00;;;;;-143.90;100.00;75155.69;4966291;28;106129;-82
2023/11/17 06:24:57;;;;;;;;;7.00;7.00;;;;;-143.90;100.00;75157.75;4963262;28;102181;-82
2023/11/17 06:27:24;;;;;;;;;9.50;6.50;;;;;-143.90;100.00;75155.69;4961395;28;102219;-82
2023/11/17 06:29:51;;;;;;;;;12.50;8.50;;;;;-143.90;100.00;75153.63;4967325;28;102514;-82
2023/11/17 06:32:17;;;;;;;;;12.75;9.00;;;;;-143.90;100.00;75161.88;4959419;28;107630;-81
2023/11/17 06:34:46;;;;;;;;;7.00;6.00;;;;;-143.90;100.00;75168.09;4961365;28;102183;-80
2023/11/17 06:37:14;;;;;;;;;11.00;10.75;;;;;-143.90;100.00;75163.94;4958636;28;102251;-80
2023/11/17 06:39:41;;;;;;;;;12.00;11.00;;;;;-143.90;100.00;75168.09;4966453;27;102405;-81
2023/11/17 06:42:08;;;;;;;;;11.75;8.00;;;;;-143.90;100.00;75163.94;4960009;27;104177;-80
2023/11/17 06:44:35;;;;;;;;;10.75;8.75;;;;;-143.90;100.00;75176.34;4954750;28;102448;-81
2023/11/17 06:47:06;;;;;;;;;16.50;11.00;;;;;-143.90;100.00;75182.56;4962225;27;102481;-80
2023/11/17 06:49:35;;;;;;;;;16.50;13.00;;;;;-143.90;100.00;75192.91;4955678;28;102596;-80
2023/11/17 06:52:07;;;;;;;;;11.75;10.50;;;;;-143.90;100.00;75205.28;4947225;28;104111;-80
2023/11/17 06:54:34;;;;;;;;;12.25;9.00;;;;;-143.90;100.00;75201.16;4960684;28;102112;-81
2023/11/17 06:57:00;;;;;;;;;13.25;8.75;;;;;-143.90;100.00;75215.63;4965128;28;102517;-80
2023/11/17 06:59:27;;;;;;;;;9.50;7.75;;;;;-143.90;100.00;75211.50;4965034;28;102423;-80
2023/11/17 07:01:55;;;;;;;;;16.50;14.50;;;;;-143.90;100.00;75230.09;4966164;28;104120;-80
2023/11/17 07:04:22;;;;;;;;;11.75;11.25;;;;;-143.90;100.00;75217.69;4967669;28;102274;-81
2023/11/17 07:06:49;;;;;;;;;2.50;1.00;;;;;-143.90;100.00;75217.69;4956890;28;103650;-81
2023/11/17 07:09:16;;;;;;;;;13.75;13.75;;;;;-143.90;100.00;75232.19;4967078;28;102474;-81
2023/11/17 07:11:46;;;;;;;;;12.75;10.50;;;;;-143.90;100.00;75223.91;4962059;28;103228;-80
2023/11/17 07:14:14;;;;;;;;;16.00;12.00;;;;;-143.90;100.00;75238.38;4964051;28;102668;-81
2023/11/17 07:16:44;;;;;;;;;17.50;13.50;;;;;-143.90;100.00;75238.38;4961823;28;102545;-79
2023/11/17 07:19:17;;;;;;;;;15.00;12.75;;;;;-143.90;100.00;75248.72;4964364;28;102475;-82
2023/11/17 07:21:46;;;;;;;;;11.25;8.75;;;;;-143.90;100.00;75240.44;4967890;28;104039;-80
2023/11/17 07:24:17;;;;;;;;;15.50;13.00;;;;;-143.90;100.00;75250.78;4954939;28;103277;-82
2023/11/17 07:26:47;;;;;;;;;13.25;11.50;;;;;-143.90;100.00;75246.66;4964911;27;102085;-81
2023/11/17 07:29:15;;;;;;;;;18.50;16.00;;;;;-143.90;100.00;75259.06;4962150;28;102280;-80
2023/11/17 07:31:44;;;;;;;;;15.00;13.50;;;;;-143.90;100.00;75254.91;4963713;28;104148;-80
2023/11/17 07:34:18;;;;;;;;;17.00;13.75;;;;;-143.90;100.00;75267.31;4959695;28;101997;-81
2023/11/17 07:36:49;;;;;;;;;12.00;11.00;;;;;-143.90;100.00;75265.25;4965319;28;102927;-81
2023/11/17 07:39:23;;;;;;;;;12.00;9.00;;;;;-143.90;100.00;75263.19;4962893;28;102707;-79
2023/11/17 07:41:50;;;;;;;;;10.25;8.00;;;;;-143.90;100.00;75261.13;4960106;28;108698;-80
2023/11/17 07:44:17;;;;;;;;;8.50;8.50;;;;;-143.90;100.00;75269.38;4959635;28;102209;-79
2023/11/17 07:46:47;;;;;;;;;13.00;9.75;;;;;-143.90;100.00;75273.53;4965886;28;102904;-80
2023/11/17 07:49:14;;;;;;;;;10.50;8.00;;;;;-143.90;100.00;75281.78;4968927;28;103191;-81
2023/11/17 07:51:47;;;;;;;;;8.50;7.25;;;;;-143.90;100.00;75288.00;4957180;27;104002;-81
2023/11/17 07:54:16;;;;;;;;;12.00;9.00;;;;;-143.90;100.00;75310.75;4969784;28;102388;-79
2023/11/17 07:56:45;;;;;;;;;15.00;10.00;;;;;-143.90;100.00;75321.06;4967161;27;102516;-79
2023/11/17 07:59:12;;;;;;;;;9.00;8.50;;;;;-143.90;100.00;75312.81;4967563;28;102220;-80
2023/11/17 08:01:39;;;;;;;;;8.25;7.75;;;;;-143.90;100.00;75306.59;4968149;28;104118;-80
2023/11/17 08:04:08;;;;;;;;;6.75;6.75;;;;;-143.90;100.00;75294.19;4961487;28;102608;-81
2023/11/17 08:06:36;;;;;;;;;5.00;5.00;;;;;-143.90;100.00;75281.78;4962308;28;102011;-80
2023/11/17 08:09:04;;;;;;;;;12.75;8.25;;;;;-143.90;100.00;75304.53;4962791;28;107528;-80
2023/11/17 08:11:31;;;;;;;;;10.25;8.00;;;;;-143.90;100.00;75319.00;4962200;28;104079;-81
2023/11/17 08:13:58;;;;;;;;;13.00;11.00;;;;;-143.90;100.00;75321.06;4961099;28;103042;-79
2023/11/17 08:16:26;;;;;;;;;12.25;11.00;;;;;-143.90;100.00;75323.16;4965495;28;102524;-79
2023/11/17 08:18:58;;;;;;;;;11.75;9.00;;;;;-143.90;100.00;75329.34;4964935;28;102890;-79
2023/11/17 08:21:39;;;;;;;;;9.50;7.00;;;;;-143.90;100.00;75316.94;4960479;27;103980;-80
2023/11/17 08:24:06;;;;;;;;;9.00;6.75;;;;;-143.90;100.00;75310.75;4967853;28;102267;-80
2023/11/17 08:26:37;;;;;;;;;8.75;6.00;;;;;-143.90;100.00;75310.75;4967689;28;102769;-80
2023/11/17 08:29:13;;;;;;;;;6.00;5.50;;;;;-143.90;100.00;75298.34;4971506;28;103711;-80
2023/11/17 08:31:40;;;;;;;;;7.50;7.00;;;;;-143.90;100.00;75308.66;4619749;28;10000359;-79
2023/11/17 08:34:06;;;;;;;;;10.00;8.75;;;;;-143.90;100.00;75314.88;4966671;28;102519;-79
2023/11/17 08:36:33;;;;;;;;;11.00;9.50;;;;;-143.90;100.00;75319.00;4967735;28;102521;-80
2023/11/17 08:38:59;;;;;;;;;9.50;8.50;;;;;-143.90;100.00;75327.28;4965545;28;102497;-77
2023/11/17 08:41:26;;;;;;;;;10.50;6.25;;;;;-143.90;100.00;75323.16;4965742;28;102379;-80
2023/11/17 08:43:56;;;;;;;;;13.00;8.75;;;;;-143.90;100.00;75325.22;4961269;28;104088;-71
2023/11/17 08:46:25;;;;;;;;;21.00;14.50;;;;;-143.90;100.00;75337.63;4963277;28;102035;-78
2023/11/17 08:48:52;;;;;;;;;13.00;13.00;;;;;-143.90;100.00;75358.28;4966975;28;102338;-79
2023/11/17 08:51:19;;;;;;;;;12.25;11.00;;;;;-143.90;100.00;75331.41;4965968;28;103215;-80
2023/11/17 08:53:45;;;;;;;;;16.00;15.00;;;;;-143.90;100.00;75337.63;4969941;28;104590;-79
2023/11/17 08:56:12;;;;;;;;;18.50;16.75;;;;;-143.90;100.00;75341.75;4964889;28;102378;-77
2023/11/17 08:58:39;;;;;;;;;20.75;17.25;;;;;-143.90;100.00;75341.75;4965477;28;102548;-79
2023/11/17 09:01:07;;;;;;;;;18.25;16.50;;;;;-143.90;100.00;75350.03;4966974;28;102865;-81
2023/11/17 09:03:34;;;;;;;;;22.50;16.50;;;;;-143.90;100.00;75362.44;4962470;28;104241;-81
2023/11/17 09:06:03;;;;;;;;;17.00;13.00;;;;;-143.90;100.00;75347.94;4963328;27;102229;-81
2023/11/17 09:08:31;;;;;;;;;12.75;12.00;;;;;-143.90;100.00;75354.16;4969813;27;102543;-80
2023/11/17 09:10:59;;;;;;;;;19.50;18.50;;;;;-143.90;100.00;75372.75;4960416;28;102565;-81
2023/11/17 09:13:28;;;;;;;;;18.00;17.00;;;;;-143.90;100.00;75366.56;4966256;28;104435;-80
2023/11/17 09:15:55;;;;;;;;;22.00;18.00;;;;;-143.90;100.00;75368.63;4968963;27;102307;-78
2023/11/17 09:18:22;;;;;;;;;22.50;21.75;;;;;-143.90;100.00;75378.97;4960645;28;102988;-79
2023/11/17 09:20:48;;;;;;;;;19.25;18.00;;;;;-143.90;100.00;75366.56;4953686;28;103490;-79
2023/11/17 09:23:44;;;;;;;;;18.00;15.50;;;;;-143.90;100.00;75356.22;4966200;28;103969;-79
2023/11/17 09:26:12;;;;;;;;;19.50;13.25;;;;;-143.90;100.00;75358.28;4957153;28;102331;-80
2023/11/17 09:28:39;;;;;;;;;22.00;17.75;;;;;-143.90;100.00;75360.34;4964884;28;102260;-78
2023/11/17 09:31:07;;;;;;;;;21.50;15.50;;;;;-143.90;100.00;75352.09;4967785;28;103166;-78
2023/11/17 09:33:33;;;;;;;;;25.00;21.25;;;;;-143.90;100.00;75370.69;4961517;28;104119;-79
2023/11/17 09:36:00;;;;;;;;;18.75;18.25;;;;;-143.90;100.00;75370.69;4965082;27;103074;-79
2023/11/17 09:38:28;;;;;;;;;23.25;20.50;;;;;-143.90;100.00;75387.22;4962737;28;101953;-77
2023/11/17 09:41:06;;;;;;;;;20.75;18.25;;;;;-143.90;100.00;75374.84;4956700;28;102807;-79
2023/11/17 09:43:38;;;;;;;;;15.50;14.50;;;;;-143.90;100.00;75362.44;4960122;28;103847;-79
2023/11/17 09:46:12;;;;;;;;;15.50;15.50;;;;;-143.90;100.00;75366.56;4959258;28;102279;-78
2023/11/17 09:48:42;;;;;;;;;15.00;13.50;;;;;-143.90;100.00;75356.22;4961941;28;103104;-78
2023/11/17 09:51:09;;;;;;;;;21.50;18.50;;;;;-143.90;100.00;75358.28;4964683;28;101977;-80
2023/11/17 09:53:40;;;;;;;;;18.50;17.25;;;;;-143.90;100.00;75339.69;4964856;28;104069;-81
2023/11/17 09:56:09;;;;;;;;;17.50;16.50;;;;;-143.90;100.00;75321.06;4962497;28;102347;-78
2023/11/17 09:58:42;;;;;;;;;22.50;18.00;;;;;-143.90;100.00;75312.81;4961404;28;102362;-81
2023/11/17 10:01:10;;;;;;;;;13.50;12.75;;;;;-143.90;100.00;75306.59;4964729;28;102173;-79
2023/11/17 10:03:38;;;;;;;;;20.25;17.50;;;;;-143.90;100.00;75304.53;4965515;28;103961;-82
2023/11/17 10:06:08;;;;;;;;;20.75;17.75;;;;;-143.90;100.00;75333.47;4964800;27;102484;-81
2023/11/17 10:08:39;;;;;;;;;29.00;26.25;;;;;-143.90;100.00;75341.75;4960411;28;102457;-79
2023/11/17 10:11:07;;;;;;;;;30.25;25.75;;;;;-143.90;100.00;75341.75;4965796;28;102974;-80
2023/11/17 10:13:34;;;;;;;;;23.00;21.50;;;;;-143.90;100.00;75350.03;4961863;28;104080;-78
2023/11/17 10:16:02;;;;;;;;;32.00;22.75;;;;;-143.90;100.00;75378.97;4960489;28;102021;-78
2023/11/17 10:18:32;;;;;;;;;29.25;25.00;;;;;-143.90;100.00;75389.31;4961596;28;102480;-77
2023/11/17 10:20:59;;;;;;;;;25.50;21.50;;;;;-143.90;100.00;75399.63;4961340;28;102086;-78
2023/11/17 10:23:26;;;;;;;;;26.00;24.75;;;;;-143.90;100.00;75389.31;4962360;28;104947;-78
2023/11/17 10:25:54;;;;;;;;;29.25;27.25;;;;;-143.90;100.00;75393.44;4966109;28;104805;-80
2023/11/17 10:28:24;;;;;;;;;28.50;25.25;;;;;-143.90;100.00;75412.03;4958767;28;103614;-79
2023/11/17 10:30:55;;;;;;;;;27.75;23.75;;;;;-143.90;100.00;75405.84;4961802;28;102180;-77
2023/11/17 10:33:44;;;;;;;;;23.00;21.75;;;;;-143.90;100.00;75391.38;4966609;27;108984;-79
2023/11/17 10:36:15;;;;;;;;;25.25;22.25;;;;;-143.90;100.00;75385.16;4958119;28;101936;-80
2023/11/17 10:38:45;;;;;;;;;28.00;22.50;;;;;-143.90;100.00;75395.50;4958140;28;101973;-79
2023/11/17 10:41:32;;;;;;;;;33.00;28.00;;;;;-143.90;100.00;75403.78;4961688;28;102300;-79
2023/11/17 10:44:01;;;;;;;;;27.50;23.25;;;;;-143.90;100.00;75407.91;4948320;28;108376;-80
2023/11/17 10:46:44;;;;;;;;;38.25;29.25;;;;;-143.90;100.00;75441.00;4958720;28;102641;-82
2023/11/17 10:49:16;;;;;;;;;31.75;29.25;;;;;-143.90;100.00;75436.84;4965288;28;102706;-79
2023/11/17 10:51:49;;;;;;;;;38.00;30.75;;;;;-143.90;100.00;75432.72;4957210;28;107960;-80
2023/11/17 10:54:17;;;;;;;;;42.50;35.00;;;;;-143.90;100.00;75441.00;4957774;28;103994;-81
2023/11/17 10:56:45;;;;;;;;;42.75;32.00;;;;;-143.90;100.00;75436.84;4957099;28;102523;-77
2023/11/17 10:59:18;;;;;;;;;37.00;27.50;;;;;-143.90;100.00;75441.00;4954660;28;102088;-80